Time;durP1;ratioP1;P1;durP2;ratioP2;P2;SDS_P1;SDS_P2;PMS_P1;PMS_P2;Temp;Humidity;BMP_temperature;BMP_pressure;BME280_temperature;BME280_humidity;BME280_pressure;Samples;Min_cycle;Max_cycle;Signal;HPM_P1;HPM_P2
2023/08/30 00:01:49;;;;;;;36.03;34.33;;;;;;;27.09;100.00;99890.06;4992568;28;20046;-76
2023/08/30 00:04:15;;;;;;;33.72;32.03;;;;;;;26.53;100.00;99907.88;4992721;28;20046;-76
2023/08/30 00:06:43;;;;;;;35.80;34.10;;;;;;;26.32;100.00;99913.28;4993308;28;20054;-80
2023/08/30 00:09:09;;;;;;;31.42;29.73;;;;;;;26.51;100.00;99902.78;4992594;28;20053;-81
2023/08/30 00:11:36;;;;;;;37.50;35.63;;;;;;;26.90;100.00;99893.31;4992917;28;20519;-76
2023/08/30 00:14:07;;;;;;;38.53;36.63;;;;;;;27.30;100.00;99890.03;4992092;28;20283;-79
2023/08/30 00:16:34;;;;;;;38.47;36.67;;;;;;;27.24;100.00;99890.59;4988661;28;20053;-79
2023/08/30 00:19:01;;;;;;;38.53;36.75;;;;;;;27.21;100.00;99883.88;4989623;28;20628;-76
2023/08/30 00:21:28;;;;;;;40.38;38.50;;;;;;;27.24;100.00;99890.59;4992354;28;20560;-81
2023/08/30 00:23:55;;;;;;;37.08;35.17;;;;;;;27.39;100.00;99884.47;4991735;28;20053;-76
2023/08/30 00:26:22;;;;;;;39.15;37.35;;;;;;;27.43;100.00;99879.94;4991145;28;20073;-77
2023/08/30 00:28:49;;;;;;;41.53;39.47;;;;;;;27.40;100.00;99872.44;4991559;28;20432;-75
2023/08/30 00:31:17;;;;;;;38.85;36.95;;;;;;;26.80;100.00;99888.25;4991377;28;20054;-76
2023/08/30 00:33:45;;;;;;;39.15;37.25;;;;;;;26.88;100.00;99881.16;4992246;28;20492;-75
2023/08/30 00:36:12;;;;;;;41.38;39.28;;;;;;;26.60;100.00;99872.75;4991807;28;20053;-76
2023/08/30 00:38:39;;;;;;;45.65;43.45;;;;;;;26.74;100.00;99873.25;4992187;28;20050;-77
2023/08/30 00:41:06;;;;;;;47.88;45.47;;;;;;;26.53;100.00;99876.00;4991920;28;20057;-80
2023/08/30 00:43:33;;;;;;;46.75;44.35;;;;;;;26.39;100.00;99878.97;4992613;28;20050;-80
2023/08/30 00:46:00;;;;;;;46.78;44.38;;;;;;;26.37;100.00;99883.16;4991545;28;20444;-82
2023/08/30 00:48:29;;;;;;;46.47;44.30;;;;;;;25.90;100.00;99888.72;4991681;28;20573;-79
2023/08/30 00:50:56;;;;;;;47.63;45.42;;;;;;;26.03;100.00;99885.78;4988580;28;20050;-80
2023/08/30 00:53:23;;;;;;;37.25;35.45;;;;;;;25.83;100.00;99891.97;4982799;28;20043;-80
2023/08/30 00:55:50;;;;;;;37.47;35.67;;;;;;;25.66;100.00;99876.53;4991541;28;20046;-80
2023/08/30 00:58:17;;;;;;;40.92;38.92;;;;;;;25.41;100.00;99886.34;4991399;28;20046;-80
2023/08/30 01:00:45;;;;;;;52.25;49.75;;;;;;;25.16;100.00;99885.31;4990848;28;20061;-80
2023/08/30 01:03:13;;;;;;;40.53;38.53;;;;;;;25.37;100.00;99893.56;4992389;28;20050;-80
2023/08/30 01:05:41;;;;;;;40.20;38.10;;;;;;;25.33;100.00;99885.28;4991366;28;20050;-80
2023/08/30 01:08:08;;;;;;;41.65;39.55;;;;;;;25.28;100.00;99893.59;4991865;28;20061;-80
2023/08/30 01:10:45;;;;;;;57.15;54.35;;;;;;;25.20;100.00;99891.69;4991045;28;20054;-80
2023/08/30 01:13:19;;;;;;;53.72;51.03;;;;;;;25.09;100.00;99896.66;4992212;28;20491;-80
2023/08/30 01:15:48;;;;;;;49.70;47.20;;;;;;;25.06;100.00;99891.06;4991152;28;20503;-79
2023/08/30 01:18:19;;;;;;;46.83;44.42;;;;;;;24.93;100.00;99906.41;4991239;28;20099;-80
2023/08/30 01:20:49;;;;;;;42.10;39.85;;;;;;;24.73;100.00;99899.75;4990936;28;20082;-81
2023/08/30 01:23:29;;;;;;;56.83;53.88;;;;;;;24.88;100.00;99914.75;4987618;28;20181;-80
2023/08/30 01:26:04;;;;;;;42.42;40.13;;;;;;;24.33;100.00;99913.44;4987458;28;20053;-80
2023/08/30 01:28:34;;;;;;;41.03;38.72;;;;;;;24.31;100.00;99906.72;4990344;28;20061;-75
2023/08/30 01:31:01;;;;;;;50.22;47.63;;;;;;;24.37;100.00;99902.72;4988641;28;20054;-76
2023/08/30 01:33:28;;;;;;;43.22;40.83;;;;;;;24.23;100.00;99913.72;4991408;28;20057;-75
2023/08/30 01:35:57;;;;;;;47.20;44.92;;;;;;;24.17;100.00;99910.34;4990214;28;20054;-76
2023/08/30 01:38:27;;;;;;;45.45;42.95;;;;;;;24.06;100.00;99916.41;4990686;28;20057;-75
2023/08/30 01:40:56;;;;;;;61.72;58.63;;;;;;;24.30;100.00;99910.53;4986410;28;20046;-75
2023/08/30 01:43:23;;;;;;;48.03;45.53;;;;;;;24.17;100.00;99909.56;4990751;28;20343;-76
2023/08/30 01:45:52;;;;;;;49.60;47.20;;;;;;;23.90;100.00;99905.16;4990017;28;20053;-76
2023/08/30 01:48:20;;;;;;;38.72;36.72;;;;;;;24.16;100.00;99889.78;4990008;28;20053;-76
2023/08/30 01:50:48;;;;;;;43.65;41.35;;;;;;;24.19;100.00;99901.91;4990026;28;20423;-76
2023/08/30 01:53:16;;;;;;;43.42;41.22;;;;;;;23.95;100.00;99911.25;4986750;28;20046;-76
2023/08/30 01:55:44;;;;;;;50.03;47.63;;;;;;;23.75;100.00;99900.97;4989895;28;20046;-75
2023/08/30 01:58:11;;;;;;;47.58;45.28;;;;;;;23.86;100.00;99896.06;4989764;28;20046;-75
2023/08/30 02:00:39;;;;;;;54.63;52.03;;;;;;;23.83;100.00;99899.41;4989525;28;20050;-76
2023/08/30 02:03:12;;;;;;;52.08;49.78;;;;;;;23.82;100.00;99904.03;4990545;28;20057;-75
2023/08/30 02:05:48;;;;;;;45.92;43.72;;;;;;;23.72;100.00;99891.59;4990258;28;20050;-75
2023/08/30 02:08:16;;;;;;;49.65;47.25;;;;;;;23.86;100.00;99899.59;4986747;28;20053;-75
2023/08/30 02:10:52;;;;;;;42.80;40.80;;;;;;;23.68;100.00;99897.91;4982990;28;20093;-76
2023/08/30 02:13:26;;;;;;;51.70;49.42;;;;;;;23.44;100.00;99892.84;4990514;28;20046;-75
2023/08/30 02:15:56;;;;;;;50.67;48.38;;;;;;;22.78;100.00;99897.97;4989635;28;20058;-76
2023/08/30 02:18:26;;;;;;;49.50;47.30;;;;;;;22.70;100.00;99902.25;4989665;28;20109;-76
2023/08/30 02:20:53;;;;;;;49.03;46.72;;;;;;;23.22;100.00;99896.41;4989326;28;20074;-75
2023/08/30 02:23:20;;;;;;;47.90;45.80;;;;;;;22.56;100.00;99893.34;4989997;28;20057;-75
2023/08/30 02:25:47;;;;;;;46.40;44.20;;;;;;;23.07;100.00;99895.69;4989614;28;20051;-80
2023/08/30 02:28:14;;;;;;;49.88;47.47;;;;;;;23.18;100.00;99881.88;4990905;28;20077;-79
2023/08/30 02:30:41;;;;;;;53.40;50.80;;;;;;;23.21;100.00;99890.19;4989691;28;20051;-79
2023/08/30 02:33:07;;;;;;;45.15;42.95;;;;;;;22.11;100.00;99890.53;4989976;28;20046;-80
2023/08/30 02:35:36;;;;;;;54.08;51.58;;;;;;;21.60;100.00;99894.22;4990076;28;20050;-79
2023/08/30 02:38:04;;;;;;;49.58;45.83;;;;;;;21.53;100.00;99894.63;4986689;28;20056;-78
2023/08/30 02:40:31;;;;;;;37.50;35.60;;;;;;;22.44;100.00;99887.69;4989519;28;20201;-76
2023/08/30 02:42:58;;;;;;;51.65;49.25;;;;;;;22.62;100.00;99901.06;4990265;28;20081;-75
2023/08/30 02:45:25;;;;;;;46.17;44.08;;;;;;;21.66;100.00;99901.13;4985136;28;20550;-78
2023/08/30 02:47:56;;;;;;;49.10;46.85;;;;;;;21.81;100.00;99905.47;4990235;28;20081;-76
2023/08/30 02:50:23;;;;;;;56.83;54.22;;;;;;;21.71;100.00;99909.16;4991722;28;20061;-76
2023/08/30 02:52:51;;;;;;;58.22;55.35;;;;;;;22.25;100.00;99909.47;4994010;28;20457;-76
2023/08/30 02:55:18;;;;;;;57.65;55.05;;;;;;;21.72;100.00;99911.56;4993096;28;20054;-76
2023/08/30 02:57:46;;;;;;;51.72;49.38;;;;;;;22.34;100.00;99918.47;4993384;28;20058;-79
2023/08/30 03:00:14;;;;;;;55.58;53.15;;;;;;;22.31;100.00;99908.25;4992569;28;20448;-80
2023/08/30 03:02:41;;;;;;;62.53;59.83;;;;;;;22.23;100.00;99917.06;4993450;28;20426;-79
2023/08/30 03:05:08;;;;;;;63.65;60.88;;;;;;;22.30;100.00;99912.88;4993976;28;20443;-79
2023/08/30 03:07:35;;;;;;;54.58;52.05;;;;;;;22.30;100.00;99920.16;4993074;28;20471;-80
2023/08/30 03:10:06;;;;;;;80.78;77.10;;;;;;;22.32;100.00;99923.38;4993676;28;20184;-80
2023/08/30 03:12:33;;;;;;;55.85;53.15;;;;;;;21.44;100.00;99926.94;4994380;28;20046;-79
2023/08/30 03:14:59;;;;;;;70.32;67.18;;;;;;;21.83;100.00;99931.09;4993204;28;20051;-80
2023/08/30 03:17:26;;;;;;;53.47;50.85;;;;;;;21.80;100.00;99928.97;4993999;28;20055;-79
2023/08/30 03:19:54;;;;;;;63.80;61.03;;;;;;;21.67;100.00;99927.88;4993256;28;20057;-80
2023/08/30 03:22:21;;;;;;;58.17;55.47;;;;;;;22.18;100.00;99920.72;4991290;28;20057;-80
2023/08/30 03:24:49;;;;;;;65.45;62.65;;;;;;;21.50;100.00;99931.16;4993193;28;20046;-79
2023/08/30 03:27:19;;;;;;;46.13;44.22;;;;;;;21.62;100.00;99935.28;4993919;28;20100;-79
2023/08/30 03:29:46;;;;;;;51.15;48.95;;;;;;;21.92;100.00;99932.00;4989779;28;20050;-79
2023/08/30 03:32:19;;;;;;;54.67;52.10;;;;;;;21.48;100.00;99940.63;4993136;28;20050;-80
2023/08/30 03:34:46;;;;;;;37.90;36.20;;;;;;;20.65;100.00;99945.72;4989679;28;20061;-79
2023/08/30 03:37:15;;;;;;;39.80;37.90;;;;;;;21.36;100.00;99943.84;4985946;28;20096;-79
2023/08/30 03:39:42;;;;;;;33.30;31.50;;;;;;;21.46;100.00;99945.56;4982587;28;20081;-81
2023/08/30 03:42:09;;;;;;;27.20;25.70;;;;;;;21.65;100.00;99940.09;4985221;28;20050;-82
2023/08/30 03:44:38;;;;;;;25.23;23.42;;;;;;;21.75;100.00;99937.19;4991353;28;20042;-82
2023/08/30 03:47:08;;;;;;;27.25;25.75;;;;;;;21.88;100.00;99939.09;4989145;28;20073;-82
2023/08/30 03:49:36;;;;;;;26.00;24.50;;;;;;;20.96;100.00;99946.06;4993170;28;20054;-82
2023/08/30 03:52:02;;;;;;;26.25;24.75;;;;;;;21.05;100.00;99949.69;4993314;28;20456;-83
2023/08/30 03:54:29;;;;;;;25.33;23.83;;;;;;;21.09;100.00;99949.09;4990670;28;20058;-82
2023/08/30 03:56:56;;;;;;;27.17;25.67;;;;;;;21.37;100.00;99950.84;4993104;28;20081;-76
2023/08/30 03:59:25;;;;;;;28.63;26.77;;;;;;;21.87;100.00;99944.78;4991361;28;20054;-76
2023/08/30 04:01:53;;;;;;;29.00;27.40;;;;;;;21.86;100.00;99937.81;4991503;28;20054;-76
2023/08/30 04:04:20;;;;;;;25.83;24.23;;;;;;;21.64;100.00;99952.00;4991858;28;20055;-75
2023/08/30 04:06:47;;;;;;;26.10;24.20;;;;;;;21.48;100.00;99946.03;4990877;28;20065;-75
2023/08/30 04:09:13;;;;;;;27.20;25.50;;;;;;;21.32;100.00;99950.88;4991895;28;20058;-75
2023/08/30 04:11:42;;;;;;;26.55;24.95;;;;;;;21.57;100.00;99952.38;4992078;28;20051;-75
2023/08/30 04:14:08;;;;;;;27.17;25.48;;;;;;;21.86;100.00;99954.81;4991843;28;20043;-75
2023/08/30 04:16:35;;;;;;;28.42;26.83;;;;;;;22.13;100.00;99964.84;4992582;28;20069;-76
2023/08/30 04:19:04;;;;;;;30.02;28.33;;;;;;;22.12;100.00;99959.75;4988276;28;20492;-75
2023/08/30 04:21:30;;;;;;;25.02;23.45;;;;;;;22.23;100.00;99961.16;4992056;28;20431;-75
2023/08/30 04:23:57;;;;;;;23.02;21.42;;;;;;;22.30;100.00;99958.03;4991973;28;20054;-76
2023/08/30 04:26:24;;;;;;;24.80;23.20;;;;;;;22.27;100.00;99966.75;4991324;28;20046;-75
2023/08/30 04:28:51;;;;;;;25.25;23.65;;;;;;;22.27;100.00;99969.44;4991768;28;20050;-82
2023/08/30 04:31:18;;;;;;;26.20;24.58;;;;;;;22.43;100.00;99972.66;4992175;28;20431;-81
2023/08/30 04:33:44;;;;;;;27.20;25.40;;;;;;;22.59;100.00;99977.44;4993676;28;20061;-82
2023/08/30 04:36:13;;;;;;;25.35;23.65;;;;;;;22.62;100.00;99974.13;4992775;28;20058;-81
2023/08/30 04:38:40;;;;;;;24.83;23.23;;;;;;;22.89;100.00;99969.75;4992879;28;20054;-81
2023/08/30 04:41:06;;;;;;;24.27;22.58;;;;;;;22.86;100.00;99970.34;4992368;28;20042;-82
2023/08/30 04:43:33;;;;;;;25.08;23.48;;;;;;;22.94;100.00;99964.25;4993186;28;20054;-82
2023/08/30 04:46:00;;;;;;;24.45;22.85;;;;;;;22.99;100.00;99979.56;4992289;28;20053;-81
2023/08/30 04:48:27;;;;;;;23.75;22.15;;;;;;;23.26;100.00;99976.72;4992337;28;20043;-83
2023/08/30 04:51:02;;;;;;;25.52;23.83;;;;;;;23.21;100.00;99979.59;4992276;28;20563;-82
2023/08/30 04:53:31;;;;;;;24.02;22.33;;;;;;;23.32;100.00;99980.91;4989871;28;20050;-82
2023/08/30 04:55:58;;;;;;;23.88;22.17;;;;;;;23.23;100.00;99982.75;4979703;28;20065;-82
2023/08/30 04:58:25;;;;;;;24.73;22.92;;;;;;;23.24;100.00;99989.81;4992335;28;20081;-82
2023/08/30 05:00:52;;;;;;;71.25;24.40;;;;;;;23.52;100.00;99997.78;4992077;28;20439;-82
2023/08/30 05:03:18;;;;;;;23.95;22.27;;;;;;;23.63;100.00;100004.56;4992366;28;20054;-81
2023/08/30 05:05:48;;;;;;;24.02;22.52;;;;;;;23.95;100.00;100013.50;5006792;28;20046;-82
2023/08/30 05:08:15;;;;;;;25.60;24.10;;;;;;;23.44;100.00;100020.19;4992631;28;20050;-81
2023/08/30 05:10:44;;;;;;;30.83;29.13;;;;;;;23.77;100.00;100024.25;4990916;28;20051;-81
2023/08/30 05:13:11;;;;;;;29.95;28.23;;;;;;;24.23;100.00;100019.50;4992355;28;20502;-82
2023/08/30 05:15:38;;;;;;;26.27;24.65;;;;;;;23.96;100.00;100025.94;4991611;28;20042;-82
2023/08/30 05:18:05;;;;;;;25.40;23.90;;;;;;;24.22;100.00;100035.00;4992114;28;20439;-81
2023/08/30 05:20:32;;;;;;;28.30;26.58;;;;;;;24.12;100.00;100039.91;4992019;28;20563;-85
2023/08/30 05:22:59;;;;;;;28.50;26.83;;;;;;;24.26;100.00;100042.50;4991653;28;20062;-82
2023/08/30 05:25:26;;;;;;;23.33;21.73;;;;;;;24.04;100.00;100046.09;4992087;28;20558;-81
2023/08/30 05:27:54;;;;;;;25.25;23.55;;;;;;;23.83;100.00;100051.25;4990976;28;20054;-81
2023/08/30 05:30:21;;;;;;;24.98;23.38;;;;;;;23.27;100.00;100046.06;4992096;28;20432;-81
2023/08/30 05:32:48;;;;;;;25.35;23.75;;;;;;;23.74;100.00;100052.00;4990974;28;20043;-82
2023/08/30 05:35:15;;;;;;;25.52;23.92;;;;;;;24.42;100.00;100052.66;4991796;28;20050;-82
2023/08/30 05:37:42;;;;;;;27.45;25.55;;;;;;;24.06;100.00;100049.31;4991600;28;20421;-81
2023/08/30 05:40:10;;;;;;;25.70;23.95;;;;;;;24.30;100.00;100051.63;4991335;28;20062;-82
2023/08/30 05:42:36;;;;;;;25.23;23.73;;;;;;;24.17;100.00;100045.19;4987944;28;20050;-82
2023/08/30 05:45:06;;;;;;;24.17;22.58;;;;;;;24.37;100.00;100055.47;4984752;28;20049;-81
2023/08/30 05:47:33;;;;;;;23.88;22.38;;;;;;;23.64;100.00;100054.94;4979911;28;20051;-82
2023/08/30 05:49:59;;;;;;;24.98;23.48;;;;;;;24.49;100.00;100054.91;4983069;28;20101;-83
2023/08/30 05:52:26;;;;;;;23.90;22.35;;;;;;;23.82;100.00;100061.31;4980852;28;20053;-83
2023/08/30 05:54:53;;;;;;;24.48;22.77;;;;;;;23.35;100.00;100054.56;4979781;28;20055;-84
2023/08/30 05:57:22;;;;;;;24.15;22.60;;;;;;;24.30;100.00;100068.72;4983163;28;20514;-82
2023/08/30 05:59:49;;;;;;;26.88;25.17;;;;;;;23.36;100.00;100064.28;4980307;28;20051;-81
2023/08/30 06:02:17;;;;;;;25.55;23.65;;;;;;;23.43;100.00;100065.47;4982283;28;20044;-82
2023/08/30 06:04:44;;;;;;;27.25;25.25;;;;;;;23.47;100.00;100066.44;4980443;28;20532;-82
2023/08/30 06:07:11;;;;;;;28.33;26.42;;;;;;;24.32;100.00;100071.91;4980437;28;20058;-82
2023/08/30 06:09:38;;;;;;;25.17;23.48;;;;;;;23.90;100.00;100067.88;4978646;28;20042;-82
2023/08/30 06:12:06;;;;;;;24.45;22.75;;;;;;;24.51;100.00;100071.69;4980510;28;20574;-82
2023/08/30 06:14:33;;;;;;;26.52;24.63;;;;;;;24.14;100.00;100076.44;4988977;28;20486;-81
2023/08/30 06:17:00;;;;;;;26.73;24.83;;;;;;;25.65;100.00;100073.41;4991582;28;20428;-81
2023/08/30 06:19:28;;;;;;;29.23;27.25;;;;;;;24.06;100.00;100079.16;4990010;28;20054;-82
2023/08/30 06:21:55;;;;;;;26.75;24.85;;;;;;;24.29;100.00;100067.09;4989569;28;20467;-81
2023/08/30 06:24:23;;;;;;;29.13;27.35;;;;;;;24.87;100.00;100067.91;4985708;28;20050;-82
2023/08/30 06:26:50;;;;;;;29.27;27.38;;;;;;;24.53;100.00;100071.38;4990373;28;20049;-81
2023/08/30 06:29:16;;;;;;;30.45;28.60;;;;;;;24.63;100.00;100066.47;4990024;28;20051;-81
2023/08/30 06:31:45;;;;;;;27.13;25.52;;;;;;;24.61;100.00;100059.75;4990891;28;20417;-82
2023/08/30 06:34:11;;;;;;;30.65;28.50;;;;;;;24.09;100.00;100059.53;4991644;28;20432;-82
2023/08/30 06:36:40;;;;;;;28.50;26.70;;;;;;;25.62;100.00;100062.38;4990266;28;20050;-83
2023/08/30 06:39:07;;;;;;;29.55;27.60;;;;;;;26.47;100.00;100065.16;4990285;28;20046;-83
2023/08/30 06:41:34;;;;;;;27.42;25.63;;;;;;;25.01;100.00;100074.03;4990547;28;20128;-82
2023/08/30 06:44:01;;;;;;;26.48;24.77;;;;;;;26.33;100.00;100070.84;4990382;28;20046;-82
2023/08/30 06:46:27;;;;;;;27.70;26.00;;;;;;;26.71;100.00;100072.75;4991035;28;20058;-83
2023/08/30 06:48:54;;;;;;;31.13;29.23;;;;;;;25.92;100.00;100071.44;4990399;28;20046;-82
2023/08/30 06:51:21;;;;;;;25.17;23.58;;;;;;;25.96;100.00;100078.66;4986373;28;20054;-83
2023/08/30 06:53:49;;;;;;;27.33;25.42;;;;;;;25.27;100.00;100076.78;4988404;28;20050;-82
2023/08/30 06:56:16;;;;;;;29.15;27.25;;;;;;;25.88;100.00;100071.31;4990697;28;20057;-82
2023/08/30 06:58:43;;;;;;;26.98;25.20;;;;;;;26.03;100.00;100065.34;4990225;28;20047;-84
2023/08/30 07:01:10;;;;;;;28.73;26.92;;;;;;;25.94;100.00;100061.84;4990951;28;20044;-82
2023/08/30 07:03:37;;;;;;;28.48;26.77;;;;;;;25.52;100.00;100083.34;4990515;28;20530;-82
2023/08/30 07:06:04;;;;;;;27.73;26.02;;;;;;;26.54;100.00;100078.28;4990721;28;20057;-83
2023/08/30 07:08:32;;;;;;;29.42;27.52;;;;;;;26.24;100.00;100072.78;4990772;28;20109;-84
2023/08/30 07:11:00;;;;;;;29.33;27.40;;;;;;;25.93;100.00;100067.59;4990173;28;20042;-84
2023/08/30 07:13:27;;;;;;;28.45;26.55;;;;;;;26.40;100.00;100071.13;4990660;28;20500;-82
2023/08/30 07:15:54;;;;;;;29.25;27.42;;;;;;;27.29;100.00;100071.06;4990145;28;20053;-82
2023/08/30 07:18:21;;;;;;;28.00;26.10;;;;;;;26.74;100.00;100072.06;4989710;28;20085;-82
2023/08/30 07:20:48;;;;;;;26.60;24.80;;;;;;;25.97;100.00;100069.38;4984228;28;20046;-82
2023/08/30 07:23:14;;;;;;;27.20;25.30;;;;;;;26.21;100.00;100063.34;4980583;28;20061;-83
2023/08/30 07:25:41;;;;;;;27.95;26.05;;;;;;;28.42;100.00;100058.19;4987756;28;20432;-83
2023/08/30 07:28:10;;;;;;;29.35;27.45;;;;;;;27.58;100.00;100061.97;4990377;28;20073;-83
2023/08/30 07:30:37;;;;;;;28.90;26.90;;;;;;;27.01;100.00;100054.44;4990263;28;20432;-82
2023/08/30 07:33:05;;;;;;;28.52;26.50;;;;;;;26.81;100.00;100049.75;4990115;28;20409;-84
2023/08/30 07:35:32;;;;;;;58.22;27.17;;;;;;;27.79;100.00;100042.88;4993383;28;20050;-83
2023/08/30 07:37:59;;;;;;;29.10;27.05;;;;;;;28.17;100.00;100058.16;4993827;28;20077;-82
2023/08/30 07:40:28;;;;;;;28.95;27.05;;;;;;;26.87;100.00;100059.31;4993496;28;20084;-84
2023/08/30 07:42:55;;;;;;;28.08;26.15;;;;;;;27.21;100.00;100061.03;4994356;28;20496;-81
2023/08/30 07:45:23;;;;;;;28.00;25.90;;;;;;;27.51;100.00;100059.00;4993471;28;20043;-84
2023/08/30 07:47:50;;;;;;;26.00;24.10;;;;;;;26.90;100.00;100058.66;4993672;28;20050;-84
2023/08/30 07:50:17;;;;;;;24.35;22.75;;;;;;;26.96;100.00;100054.66;4993056;28;20050;-83
2023/08/30 07:52:44;;;;;;;22.38;20.88;;;;;;;27.86;100.00;100051.28;4993127;28;20046;-83
2023/08/30 07:55:11;;;;;;;27.90;26.00;;;;;;;27.84;100.00;100050.84;4994197;28;20054;-82
2023/08/30 07:57:37;;;;;;;25.52;23.60;;;;;;;28.31;100.00;100052.34;4993725;28;20050;-83
2023/08/30 08:00:05;;;;;;;25.00;23.30;;;;;;;28.59;100.00;100049.75;4993364;28;20047;-83
2023/08/30 08:02:33;;;;;;;25.45;23.45;;;;;;;29.27;100.00;100048.25;4982707;28;20042;-82
2023/08/30 08:05:00;;;;;;;25.45;23.65;;;;;;;28.56;100.00;100046.91;4992078;28;20058;-74
2023/08/30 08:07:27;;;;;;;25.55;23.95;;;;;;;29.58;100.00;100048.34;4991822;28;20046;-76
2023/08/30 08:10:09;;;;;;;24.23;22.52;;;;;;;29.20;100.00;100049.66;4993804;28;20050;-77
2023/08/30 08:12:36;;;;;;;26.77;24.90;;;;;;;29.63;100.00;100039.91;4994091;28;20053;-82
2023/08/30 08:15:03;;;;;;;25.65;23.95;;;;;;;29.67;100.00;100056.41;4994668;28;20069;-77
2023/08/30 08:17:39;;;;;;;25.27;23.48;;;;;;;29.65;100.00;100042.28;4990427;28;20504;-84
2023/08/30 08:20:26;;;;;;;25.70;24.00;;;;;;;30.00;100.00;100027.94;4993021;28;20050;-77
2023/08/30 08:22:53;;;;;;;27.60;25.70;;;;;;;29.36;100.00;100029.75;4992240;28;20133;-76
2023/08/30 08:25:21;;;;;;;27.55;25.67;;;;;;;29.59;100.00;100029.97;4992888;28;20050;-76
2023/08/30 08:27:48;;;;;;;26.63;24.83;;;;;;;30.00;100.00;100025.19;4993704;28;20157;-77
2023/08/30 08:30:15;;;;;;;27.00;25.27;;;;;;;29.82;100.00;100027.47;4989225;28;20255;-84
2023/08/30 08:32:49;;;;;;;29.27;27.27;;;;;;;30.46;100.00;100026.31;4993181;28;20475;-84
2023/08/30 08:35:16;;;;;;;26.63;24.90;;;;;;;29.65;100.00;100025.88;4993786;28;20431;-83
2023/08/30 08:37:44;;;;;;;27.67;25.88;;;;;;;31.00;100.00;100017.31;4994563;28;20048;-83
2023/08/30 08:40:12;;;;;;;28.10;26.30;;;;;;;31.52;100.00;100026.19;4987584;28;20050;-84
2023/08/30 08:42:38;;;;;;;29.50;27.70;;;;;;;30.32;100.00;100028.75;4982709;28;20043;-84
2023/08/30 08:45:07;;;;;;;29.75;27.85;;;;;;;30.74;100.00;100019.88;4983776;28;20046;-77
2023/08/30 08:47:35;;;;;;;29.42;27.42;;;;;;;31.10;100.00;100023.38;4980704;28;20058;-76
2023/08/30 08:50:03;;;;;;;26.33;24.73;;;;;;;31.22;100.00;100026.75;4986124;28;20073;-84
2023/08/30 08:52:31;;;;;;;28.40;26.60;;;;;;;31.23;100.00;100027.59;4986698;28;20042;-76
2023/08/30 08:54:59;;;;;;;27.77;25.98;;;;;;;30.10;100.00;100027.38;4983623;28;20051;-82
2023/08/30 08:57:29;;;;;;;27.55;25.75;;;;;;;31.22;100.00;100029.50;4982335;28;20101;-76
2023/08/30 08:59:56;;;;;;;30.02;28.10;;;;;;;30.65;100.00;100022.81;4983598;28;20060;-76
2023/08/30 09:02:24;;;;;;;29.77;27.67;;;;;;;31.00;100.00;100017.31;4981469;28;20051;-83
2023/08/30 09:04:53;;;;;;;29.70;27.80;;;;;;;30.90;100.00;100012.44;4987501;28;20050;-76
2023/08/30 09:07:21;;;;;;;29.52;27.42;;;;;;;30.83;100.00;100008.72;4985463;28;20088;-76
2023/08/30 09:09:49;;;;;;;29.60;27.50;;;;;;;30.51;100.00;100003.34;4980618;28;20508;-76
2023/08/30 09:12:16;;;;;;;30.27;28.17;;;;;;;31.54;100.00;100006.63;4981240;28;20050;-76
2023/08/30 09:14:42;;;;;;;27.88;26.17;;;;;;;30.88;100.00;100000.22;4981184;28;20444;-76
2023/08/30 09:17:09;;;;;;;26.08;24.38;;;;;;;32.20;100.00;99997.16;4978304;28;20054;-76
2023/08/30 09:19:36;;;;;;;27.25;25.40;;;;;;;30.99;100.00;100001.25;4989618;28;20054;-76
2023/08/30 09:22:03;;;;;;;28.88;27.08;;;;;;;31.01;100.00;99993.44;4990625;28;20053;-76
2023/08/30 09:24:40;;;;;;;30.52;28.65;;;;;;;30.78;100.00;99991.44;4990195;28;20054;-75
2023/08/30 09:27:07;;;;;;;31.50;29.60;;;;;;;30.27;100.00;99990.66;4986519;28;20050;-76
2023/08/30 09:29:34;;;;;;;30.88;28.90;;;;;;;31.91;100.00;99987.69;4990854;28;20053;-75
2023/08/30 09:32:02;;;;;;;31.95;30.05;;;;;;;30.90;100.00;99990.50;4990718;28;20504;-76
2023/08/30 09:34:29;;;;;;;30.90;29.05;;;;;;;30.95;100.00;99981.97;4990932;28;20054;-77
2023/08/30 09:36:59;;;;;;;27.90;26.20;;;;;;;32.33;100.00;99976.53;4990242;28;20054;-76
2023/08/30 09:39:26;;;;;;;27.52;25.92;;;;;;;31.27;100.00;99979.06;4989062;28;20065;-76
2023/08/30 09:41:56;;;;;;;27.05;25.45;;;;;;;29.97;100.00;99971.94;4989867;28;20539;-75
2023/08/30 09:44:24;;;;;;;33.78;28.90;;;;;;;32.34;100.00;99969.09;4990419;28;20431;-75
2023/08/30 09:46:52;;;;;;;27.70;26.05;;;;;;;30.98;100.00;99973.00;4973928;28;20055;-75
2023/08/30 09:49:20;;;;;;;30.17;28.38;;;;;;;32.01;100.00;99976.06;4980469;28;20096;-75
2023/08/30 09:51:48;;;;;;;28.67;27.08;;;;;;;31.25;100.00;99981.38;4981869;28;20050;-76
2023/08/30 09:54:17;;;;;;;43.67;41.22;;;;;;;31.30;100.00;99981.06;4980011;28;20050;-75
2023/08/30 09:56:45;;;;;;;41.55;39.25;;;;;;;33.01;100.00;99968.41;4984844;28;20047;-76
2023/08/30 09:59:14;;;;;;;41.55;39.05;;;;;;;33.13;100.00;99970.91;4980796;28;20072;-75
2023/08/30 10:01:41;;;;;;;39.65;37.35;;;;;;;33.46;100.00;99963.78;4977616;28;20497;-76
2023/08/30 10:04:09;;;;;;;33.67;31.67;;;;;;;32.73;100.00;99963.34;4979963;28;20043;-77
2023/08/30 10:06:37;;;;;;;34.92;32.42;;;;;;;32.12;100.00;99949.56;4984227;28;20149;-76
2023/08/30 10:09:05;;;;;;;42.28;39.88;;;;;;;31.39;100.00;99956.19;4980469;28;20047;-82
2023/08/30 10:11:34;;;;;;;38.60;36.28;;;;;;;31.68;100.00;99965.69;4980553;28;20471;-82
2023/08/30 10:14:03;;;;;;;28.42;26.67;;;;;;;31.93;100.00;99952.41;4982307;28;20420;-82
2023/08/30 10:16:37;;;;;;;30.45;28.45;;;;;;;32.65;100.00;99961.66;4981285;28;20058;-84
2023/08/30 10:19:09;;;;;;;33.95;31.85;;;;;;;32.26;100.00;99948.19;4986585;28;20439;-82
2023/08/30 10:21:37;;;;;;;;;;;;;;;31.41;100.00;99951.16;4979993;28;20142;-82
2023/08/30 10:24:08;;;;;;;29.75;27.85;;;;;;;31.93;100.00;99947.72;4979994;28;20359;-83
2023/08/30 10:26:35;;;;;;;28.90;27.20;;;;;;;32.08;100.00;99945.97;4984711;28;20538;-83
2023/08/30 10:29:04;;;;;;;32.72;30.73;;;;;;;33.84;100.00;99940.53;4982084;28;20046;-83
2023/08/30 10:31:33;;;;;;;34.00;32.00;;;;;;;31.61;100.00;99943.63;4979296;28;20234;-82
2023/08/30 10:33:59;;;;;;;28.85;26.73;;;;;;;32.53;100.00;99946.22;4983559;28;20050;-83
2023/08/30 10:36:27;;;;;;;28.42;26.58;;;;;;;32.46;100.00;99938.66;4991498;28;20058;-83
2023/08/30 10:38:55;;;;;;;26.52;24.83;;;;;;;32.59;100.00;99942.78;4990982;28;20551;-83
2023/08/30 10:41:23;;;;;;;29.42;27.52;;;;;;;33.21;100.00;99928.56;4990345;28;20050;-82
2023/08/30 10:43:52;;;;;;;26.85;24.73;;;;;;;34.53;93.42;99927.97;4990192;28;20042;-83
2023/08/30 10:46:31;;;;;;;24.58;22.90;;;;;;;33.32;100.00;99931.41;4991168;28;20050;-83
2023/08/30 10:49:10;;;;;;;27.08;25.38;;;;;;;33.65;100.00;99927.81;4990964;28;20100;-82
2023/08/30 10:51:39;;;;;;;32.28;30.13;;;;;;;34.26;97.91;99925.47;4990924;28;20058;-83
2023/08/30 10:54:13;;;;;;;30.95;29.05;;;;;;;35.67;84.19;99919.19;4990754;28;20054;-82
2023/08/30 10:56:55;;;;;;;29.73;27.83;;;;;;;34.09;88.16;99909.63;4992035;28;20463;-82
2023/08/30 10:59:24;;;;;;;27.65;25.95;;;;;;;33.23;99.06;99917.97;4987325;28;20436;-84
2023/08/30 11:01:55;;;;;;;28.92;27.00;;;;;;;35.03;85.53;99908.84;4981898;28;20152;-84
2023/08/30 11:04:25;;;;;;;29.17;27.27;;;;;;;35.26;76.21;99898.25;4992121;28;20053;-83
2023/08/30 11:06:53;;;;;;;27.48;25.77;;;;;;;34.99;92.79;99908.81;4991491;28;20056;-83
2023/08/30 11:09:22;;;;;;;28.98;27.27;;;;;;;33.82;91.97;99909.03;4990911;28;20128;-82
2023/08/30 11:11:50;;;;;;;30.80;28.88;;;;;;;33.34;99.60;99906.25;4996423;28;20054;-84